METAR & TAF

RJTI 210600Z 14006KT 9999 FEW030 11/02 Q1014
RJTI 210500Z 12008KT 9999 FEW030 11/01 Q1014
RJTI 210400Z 09004KT 040V170 9999 FEW030 SCT/// 10/M02 Q1014
RJTI 210300Z 03005KT 350V080 9999 FEW030 BKN/// 10/M03 Q1015
RJTI 210200Z 02005KT 290V100 9999 FEW030 10/M01 Q1016
No TAF found for RJTI